sensor_id;sensor_type;location;lat;lon;timestamp;pressure;altitude;pressure_sealevel;temperature;humidity
29063;BME280;71206;48.564;-123.458;2023-08-07T00:00:31;101354.68;;;22.34;69.34
29063;BME280;71206;48.564;-123.458;2023-08-07T00:02:56;101354.14;;;23.29;63.28
29063;BME280;71206;48.564;-123.458;2023-08-07T00:05:26;101353.23;;;23.39;61.59
29063;BME280;71206;48.564;-123.458;2023-08-07T00:07:48;101348.83;;;24.16;58.76
29063;BME280;71206;48.564;-123.458;2023-08-07T00:10:14;101345.89;;;24.41;56.39
29063;BME280;71206;48.564;-123.458;2023-08-07T00:12:39;101344.01;;;24.24;56.68
29063;BME280;71206;48.564;-123.458;2023-08-07T00:15:06;101338.40;;;24.31;54.88
29063;BME280;71206;48.564;-123.458;2023-08-07T00:17:31;101333.65;;;25.21;52.31
29063;BME280;71206;48.564;-123.458;2023-08-07T00:19:59;101336.84;;;24.65;54.62
29063;BME280;71206;48.564;-123.458;2023-08-07T00:22:22;101338.63;;;24.80;52.91
29063;BME280;71206;48.564;-123.458;2023-08-07T00:24:48;101336.92;;;25.60;51.12
29063;BME280;71206;48.564;-123.458;2023-08-07T00:27:13;101337.74;;;24.40;53.06
29063;BME280;71206;48.564;-123.458;2023-08-07T00:29:39;101333.62;;;24.82;52.96
29063;BME280;71206;48.564;-123.458;2023-08-07T00:32:05;101331.12;;;25.09;51.60
29063;BME280;71206;48.564;-123.458;2023-08-07T00:34:31;101331.31;;;25.53;51.10
29063;BME280;71206;48.564;-123.458;2023-08-07T00:36:57;101330.95;;;25.14;52.17
29063;BME280;71206;48.564;-123.458;2023-08-07T00:39:22;101328.86;;;24.85;52.75
29063;BME280;71206;48.564;-123.458;2023-08-07T00:41:47;101329.58;;;24.74;52.56
29063;BME280;71206;48.564;-123.458;2023-08-07T00:44:13;101327.35;;;25.21;50.77
29063;BME280;71206;48.564;-123.458;2023-08-07T00:46:39;101324.56;;;25.05;50.72
29063;BME280;71206;48.564;-123.458;2023-08-07T00:49:05;101325.45;;;25.47;48.32
29063;BME280;71206;48.564;-123.458;2023-08-07T00:51:31;101321.50;;;26.06;47.01
29063;BME280;71206;48.564;-123.458;2023-08-07T00:53:56;101315.31;;;25.44;48.56
29063;BME280;71206;48.564;-123.458;2023-08-07T00:56:24;101317.16;;;25.93;47.66
29063;BME280;71206;48.564;-123.458;2023-08-07T00:58:47;101316.60;;;26.52;47.77
29063;BME280;71206;48.564;-123.458;2023-08-07T01:01:13;101313.56;;;25.33;49.15
29063;BME280;71206;48.564;-123.458;2023-08-07T01:03:38;101307.85;;;25.73;48.55
29063;BME280;71206;48.564;-123.458;2023-08-07T01:06:04;101305.69;;;25.21;50.05
29063;BME280;71206;48.564;-123.458;2023-08-07T01:08:30;101306.31;;;24.90;51.13
29063;BME280;71206;48.564;-123.458;2023-08-07T01:11:09;101310.17;;;24.74;53.22
29063;BME280;71206;48.564;-123.458;2023-08-07T01:13:29;101311.99;;;24.62;53.71
29063;BME280;71206;48.564;-123.458;2023-08-07T01:15:48;101316.12;;;24.94;54.13
29063;BME280;71206;48.564;-123.458;2023-08-07T01:18:13;101311.82;;;24.27;55.99
29063;BME280;71206;48.564;-123.458;2023-08-07T01:20:41;101303.17;;;24.62;54.17
29063;BME280;71206;48.564;-123.458;2023-08-07T01:23:04;101300.30;;;24.38;54.44
29063;BME280;71206;48.564;-123.458;2023-08-07T01:25:30;101300.47;;;25.13;52.32
29063;BME280;71206;48.564;-123.458;2023-08-07T01:28:02;101305.56;;;25.27;51.49
29063;BME280;71206;48.564;-123.458;2023-08-07T01:30:26;101304.26;;;25.21;50.80
29063;BME280;71206;48.564;-123.458;2023-08-07T01:32:56;101304.39;;;24.50;51.93
29063;BME280;71206;48.564;-123.458;2023-08-07T01:35:14;101300.71;;;25.21;50.27
29063;BME280;71206;48.564;-123.458;2023-08-07T01:37:41;101299.90;;;24.79;50.98
29063;BME280;71206;48.564;-123.458;2023-08-07T01:40:06;101298.28;;;25.37;49.96
29063;BME280;71206;48.564;-123.458;2023-08-07T01:42:29;101294.97;;;25.74;49.53
29063;BME280;71206;48.564;-123.458;2023-08-07T01:44:56;101296.64;;;25.38;50.45
29063;BME280;71206;48.564;-123.458;2023-08-07T01:47:21;101293.95;;;25.55;50.36
29063;BME280;71206;48.564;-123.458;2023-08-07T01:49:47;101294.28;;;24.54;53.02
29063;BME280;71206;48.564;-123.458;2023-08-07T01:52:12;101291.16;;;24.76;52.38
29063;BME280;71206;48.564;-123.458;2023-08-07T01:54:38;101289.16;;;24.66;52.07
29063;BME280;71206;48.564;-123.458;2023-08-07T01:57:04;101287.51;;;25.90;48.92
29063;BME280;71206;48.564;-123.458;2023-08-07T01:59:30;101288.61;;;26.07;48.52
29063;BME280;71206;48.564;-123.458;2023-08-07T02:01:55;101285.94;;;25.08;51.27
29063;BME280;71206;48.564;-123.458;2023-08-07T02:04:22;101285.25;;;24.57;53.28
29063;BME280;71206;48.564;-123.458;2023-08-07T02:06:46;101288.07;;;25.14;52.91
29063;BME280;71206;48.564;-123.458;2023-08-07T02:09:12;101284.80;;;25.00;52.51
29063;BME280;71206;48.564;-123.458;2023-08-07T02:11:38;101286.09;;;25.10;52.29
29063;BME280;71206;48.564;-123.458;2023-08-07T02:14:04;101283.83;;;25.55;49.57
29063;BME280;71206;48.564;-123.458;2023-08-07T02:16:29;101286.90;;;25.54;49.17
29063;BME280;71206;48.564;-123.458;2023-08-07T02:18:55;101286.28;;;25.38;49.21
29063;BME280;71206;48.564;-123.458;2023-08-07T02:21:21;101291.70;;;25.91;47.85
29063;BME280;71206;48.564;-123.458;2023-08-07T02:23:47;101296.30;;;25.03;49.15
29063;BME280;71206;48.564;-123.458;2023-08-07T02:26:12;101291.92;;;24.97;49.52
29063;BME280;71206;48.564;-123.458;2023-08-07T02:28:38;101292.08;;;24.27;51.33
29063;BME280;71206;48.564;-123.458;2023-08-07T02:31:03;101293.84;;;25.19;48.64
29063;BME280;71206;48.564;-123.458;2023-08-07T02:33:30;101294.48;;;25.32;48.38
29063;BME280;71206;48.564;-123.458;2023-08-07T02:35:55;101295.07;;;25.13;48.98
29063;BME280;71206;48.564;-123.458;2023-08-07T02:38:26;101295.76;;;25.41;49.23
29063;BME280;71206;48.564;-123.458;2023-08-07T02:40:47;101298.24;;;24.76;49.38
29063;BME280;71206;48.564;-123.458;2023-08-07T02:43:17;101299.46;;;24.44;51.38
29063;BME280;71206;48.564;-123.458;2023-08-07T02:45:37;101301.89;;;24.00;53.88
29063;BME280;71206;48.564;-123.458;2023-08-07T02:48:04;101302.96;;;24.37;52.18
29063;BME280;71206;48.564;-123.458;2023-08-07T02:50:29;101302.02;;;24.89;50.87
29063;BME280;71206;48.564;-123.458;2023-08-07T02:52:55;101301.77;;;24.73;50.87
29063;BME280;71206;48.564;-123.458;2023-08-07T02:55:21;101303.42;;;24.79;50.77
29063;BME280;71206;48.564;-123.458;2023-08-07T02:57:47;101302.45;;;25.39;49.82
29063;BME280;71206;48.564;-123.458;2023-08-07T03:00:12;101309.92;;;23.94;57.19
29063;BME280;71206;48.564;-123.458;2023-08-07T03:02:38;101309.45;;;23.29;59.53
29063;BME280;71206;48.564;-123.458;2023-08-07T03:05:05;101306.94;;;23.15;62.12
29063;BME280;71206;48.564;-123.458;2023-08-07T03:07:29;101301.98;;;24.59;54.71
29063;BME280;71206;48.564;-123.458;2023-08-07T03:09:55;101302.18;;;24.13;53.62
29063;BME280;71206;48.564;-123.458;2023-08-07T03:12:20;101307.33;;;23.99;61.09
29063;BME280;71206;48.564;-123.458;2023-08-07T03:14:46;101308.02;;;23.54;65.37
29063;BME280;71206;48.564;-123.458;2023-08-07T03:17:12;101309.81;;;23.34;60.25
29063;BME280;71206;48.564;-123.458;2023-08-07T03:19:39;101310.85;;;23.34;62.61
29063;BME280;71206;48.564;-123.458;2023-08-07T03:22:03;101316.93;;;23.60;56.80
29063;BME280;71206;48.564;-123.458;2023-08-07T03:24:29;101320.69;;;23.18;64.53
29063;BME280;71206;48.564;-123.458;2023-08-07T03:26:54;101324.39;;;22.97;63.24
29063;BME280;71206;48.564;-123.458;2023-08-07T03:29:20;101324.40;;;23.47;64.69
29063;BME280;71206;48.564;-123.458;2023-08-07T03:31:46;101323.83;;;23.31;59.85
29063;BME280;71206;48.564;-123.458;2023-08-07T03:34:16;101323.09;;;22.95;67.31
29063;BME280;71206;48.564;-123.458;2023-08-07T03:36:37;101319.80;;;22.21;67.72
29063;BME280;71206;48.564;-123.458;2023-08-07T03:39:03;101319.27;;;22.82;68.25
29063;BME280;71206;48.564;-123.458;2023-08-07T03:41:29;101320.57;;;22.37;68.13
29063;BME280;71206;48.564;-123.458;2023-08-07T03:43:54;101320.08;;;22.35;70.04
29063;BME280;71206;48.564;-123.458;2023-08-07T03:46:22;101322.34;;;23.06;64.21
29063;BME280;71206;48.564;-123.458;2023-08-07T03:48:46;101322.68;;;22.85;64.60
29063;BME280;71206;48.564;-123.458;2023-08-07T03:51:12;101321.89;;;22.51;69.74
29063;BME280;71206;48.564;-123.458;2023-08-07T03:53:38;101327.05;;;22.34;70.07
29063;BME280;71206;48.564;-123.458;2023-08-07T03:56:03;101326.10;;;22.06;73.69
29063;BME280;71206;48.564;-123.458;2023-08-07T03:58:29;101326.71;;;21.16;81.59
29063;BME280;71206;48.564;-123.458;2023-08-07T04:00:55;101327.95;;;21.59;77.11
29063;BME280;71206;48.564;-123.458;2023-08-07T04:03:21;101324.92;;;21.55;79.05
29063;BME280;71206;48.564;-123.458;2023-08-07T04:05:47;101325.72;;;22.17;70.67
29063;BME280;71206;48.564;-123.458;2023-08-07T04:08:12;101324.90;;;21.95;78.85
29063;BME280;71206;48.564;-123.458;2023-08-07T04:10:38;101322.32;;;22.75;69.17
29063;BME280;71206;48.564;-123.458;2023-08-07T04:13:04;101328.29;;;22.42;71.33
29063;BME280;71206;48.564;-123.458;2023-08-07T04:15:29;101325.60;;;22.82;67.12
29063;BME280;71206;48.564;-123.458;2023-08-07T04:17:56;101327.65;;;22.01;76.12
29063;BME280;71206;48.564;-123.458;2023-08-07T04:20:21;101330.25;;;21.52;76.44
29063;BME280;71206;48.564;-123.458;2023-08-07T04:22:46;101333.60;;;21.34;77.59
29063;BME280;71206;48.564;-123.458;2023-08-07T04:25:12;101335.66;;;21.37;76.00
29063;BME280;71206;48.564;-123.458;2023-08-07T04:27:38;101334.28;;;21.86;77.92
29063;BME280;71206;48.564;-123.458;2023-08-07T04:30:05;101332.88;;;21.51;77.62
29063;BME280;71206;48.564;-123.458;2023-08-07T04:32:30;101325.01;;;21.53;75.54
29063;BME280;71206;48.564;-123.458;2023-08-07T04:34:55;101320.28;;;23.08;68.05
29063;BME280;71206;48.564;-123.458;2023-08-07T04:37:21;101321.76;;;22.75;67.63
29063;BME280;71206;48.564;-123.458;2023-08-07T04:39:47;101324.06;;;22.50;67.20
29063;BME280;71206;48.564;-123.458;2023-08-07T04:42:13;101327.66;;;22.35;72.59
29063;BME280;71206;48.564;-123.458;2023-08-07T04:44:39;101328.60;;;21.96;76.54
29063;BME280;71206;48.564;-123.458;2023-08-07T04:47:04;101329.69;;;21.61;82.72
29063;BME280;71206;48.564;-123.458;2023-08-07T04:49:30;101328.79;;;21.22;85.02
29063;BME280;71206;48.564;-123.458;2023-08-07T04:51:55;101330.20;;;21.17;89.00
29063;BME280;71206;48.564;-123.458;2023-08-07T04:54:22;101333.75;;;20.92;86.06
29063;BME280;71206;48.564;-123.458;2023-08-07T04:56:47;101336.51;;;21.21;88.66
29063;BME280;71206;48.564;-123.458;2023-08-07T04:59:12;101336.25;;;21.12;85.51
29063;BME280;71206;48.564;-123.458;2023-08-07T05:01:40;101335.07;;;20.69;87.05
29063;BME280;71206;48.564;-123.458;2023-08-07T05:04:05;101336.27;;;21.80;77.20
29063;BME280;71206;48.564;-123.458;2023-08-07T05:06:30;101336.29;;;20.57;89.30
29063;BME280;71206;48.564;-123.458;2023-08-07T05:08:56;101336.21;;;20.18;95.76
29063;BME280;71206;48.564;-123.458;2023-08-07T05:11:22;101341.90;;;21.85;77.54
29063;BME280;71206;48.564;-123.458;2023-08-07T05:13:47;101343.63;;;21.56;75.46
29063;BME280;71206;48.564;-123.458;2023-08-07T05:16:13;101338.69;;;21.29;85.77
29063;BME280;71206;48.564;-123.458;2023-08-07T05:18:39;101338.38;;;20.90;81.00
29063;BME280;71206;48.564;-123.458;2023-08-07T05:21:06;101341.03;;;21.92;75.45
29063;BME280;71206;48.564;-123.458;2023-08-07T05:23:33;101337.01;;;21.34;79.12
29063;BME280;71206;48.564;-123.458;2023-08-07T05:25:57;101333.09;;;21.03;82.96
29063;BME280;71206;48.564;-123.458;2023-08-07T05:28:22;101333.84;;;21.61;79.50
29063;BME280;71206;48.564;-123.458;2023-08-07T05:30:48;101333.55;;;22.35;70.67
29063;BME280;71206;48.564;-123.458;2023-08-07T05:33:13;101337.32;;;21.94;75.56
29063;BME280;71206;48.564;-123.458;2023-08-07T05:35:39;101333.86;;;21.82;75.31
29063;BME280;71206;48.564;-123.458;2023-08-07T05:38:05;101337.51;;;21.03;80.74
29063;BME280;71206;48.564;-123.458;2023-08-07T05:40:30;101335.32;;;21.99;74.00
29063;BME280;71206;48.564;-123.458;2023-08-07T05:42:56;101330.88;;;22.70;68.72
29063;BME280;71206;48.564;-123.458;2023-08-07T05:45:22;101325.30;;;20.85;82.04
29063;BME280;71206;48.564;-123.458;2023-08-07T05:47:48;101325.31;;;20.38;89.53
29063;BME280;71206;48.564;-123.458;2023-08-07T05:50:14;101324.04;;;20.86;89.51
29063;BME280;71206;48.564;-123.458;2023-08-07T05:52:40;101323.12;;;20.02;94.48
29063;BME280;71206;48.564;-123.458;2023-08-07T05:55:06;101325.37;;;20.47;88.84
29063;BME280;71206;48.564;-123.458;2023-08-07T05:57:31;101327.15;;;20.63;88.95
29063;BME280;71206;48.564;-123.458;2023-08-07T05:59:57;101326.72;;;20.94;82.80
29063;BME280;71206;48.564;-123.458;2023-08-07T06:02:22;101326.51;;;20.27;93.54
29063;BME280;71206;48.564;-123.458;2023-08-07T06:04:48;101327.96;;;21.10;84.57
29063;BME280;71206;48.564;-123.458;2023-08-07T06:07:14;101330.21;;;20.98;87.81
29063;BME280;71206;48.564;-123.458;2023-08-07T06:09:40;101328.74;;;20.86;83.14
29063;BME280;71206;48.564;-123.458;2023-08-07T06:12:07;101328.71;;;20.38;89.46
29063;BME280;71206;48.564;-123.458;2023-08-07T06:14:34;101327.50;;;21.94;79.17
29063;BME280;71206;48.564;-123.458;2023-08-07T06:16:57;101324.91;;;21.24;82.06
29063;BME280;71206;48.564;-123.458;2023-08-07T06:19:23;101329.07;;;20.76;88.04
29063;BME280;71206;48.564;-123.458;2023-08-07T06:21:49;101330.43;;;20.79;87.22
29063;BME280;71206;48.564;-123.458;2023-08-07T06:24:15;101333.18;;;20.43;93.17
29063;BME280;71206;48.564;-123.458;2023-08-07T06:26:42;101331.24;;;20.08;100.00
29063;BME280;71206;48.564;-123.458;2023-08-07T06:29:06;101331.26;;;19.89;100.00
29063;BME280;71206;48.564;-123.458;2023-08-07T06:31:32;101330.98;;;20.79;89.81
29063;BME280;71206;48.564;-123.458;2023-08-07T06:33:57;101333.90;;;20.24;99.72
29063;BME280;71206;48.564;-123.458;2023-08-07T06:36:23;101329.65;;;19.96;100.00
29063;BME280;71206;48.564;-123.458;2023-08-07T06:38:51;101328.02;;;20.64;91.45
29063;BME280;71206;48.564;-123.458;2023-08-07T06:41:20;101323.25;;;20.40;95.34
29063;BME280;71206;48.564;-123.458;2023-08-07T06:43:41;101323.45;;;20.02;100.00
29063;BME280;71206;48.564;-123.458;2023-08-07T06:46:08;101320.93;;;20.11;97.66
29063;BME280;71206;48.564;-123.458;2023-08-07T06:48:33;101319.40;;;20.41;92.62
29063;BME280;71206;48.564;-123.458;2023-08-07T06:51:00;101317.57;;;20.37;95.65
29063;BME280;71206;48.564;-123.458;2023-08-07T06:53:24;101316.31;;;19.90;98.84
29063;BME280;71206;48.564;-123.458;2023-08-07T06:55:50;101318.78;;;20.03;95.13
29063;BME280;71206;48.564;-123.458;2023-08-07T06:58:16;101323.04;;;21.22;86.46
29063;BME280;71206;48.564;-123.458;2023-08-07T07:00:41;101324.01;;;19.90;100.00
29063;BME280;71206;48.564;-123.458;2023-08-07T07:03:07;101326.72;;;19.60;100.00
29063;BME280;71206;48.564;-123.458;2023-08-07T07:05:34;101326.51;;;18.46;100.00
29063;BME280;71206;48.564;-123.458;2023-08-07T07:08:00;101326.99;;;18.48;100.00
29063;BME280;71206;48.564;-123.458;2023-08-07T07:10:24;101327.12;;;18.76;100.00
29063;BME280;71206;48.564;-123.458;2023-08-07T07:12:55;101324.66;;;19.34;100.00
29063;BME280;71206;48.564;-123.458;2023-08-07T07:15:16;101330.52;;;18.94;100.00
29063;BME280;71206;48.564;-123.458;2023-08-07T07:17:42;101333.67;;;18.97;100.00
29063;BME280;71206;48.564;-123.458;2023-08-07T07:20:09;101334.45;;;19.15;100.00
29063;BME280;71206;48.564;-123.458;2023-08-07T07:22:33;101335.54;;;19.28;100.00
29063;BME280;71206;48.564;-123.458;2023-08-07T07:25:00;101337.31;;;19.70;100.00
29063;BME280;71206;48.564;-123.458;2023-08-07T07:27:26;101328.14;;;20.16;100.00
29063;BME280;71206;48.564;-123.458;2023-08-07T07:29:52;101323.77;;;19.67;100.00
29063;BME280;71206;48.564;-123.458;2023-08-07T07:32:17;101321.21;;;20.25;100.00
29063;BME280;71206;48.564;-123.458;2023-08-07T07:34:42;101325.50;;;20.46;99.77
29063;BME280;71206;48.564;-123.458;2023-08-07T07:37:09;101331.90;;;20.46;100.00
29063;BME280;71206;48.564;-123.458;2023-08-07T07:39:35;101336.14;;;20.13;99.48
29063;BME280;71206;48.564;-123.458;2023-08-07T07:42:00;101334.95;;;20.24;99.12
29063;BME280;71206;48.564;-123.458;2023-08-07T07:44:26;101336.80;;;20.71;92.16
29063;BME280;71206;48.564;-123.458;2023-08-07T07:46:51;101338.14;;;20.45;91.64
29063;BME280;71206;48.564;-123.458;2023-08-07T07:49:19;101335.00;;;21.12;89.93
29063;BME280;71206;48.564;-123.458;2023-08-07T07:51:43;101333.24;;;21.03;90.94
29063;BME280;71206;48.564;-123.458;2023-08-07T07:54:09;101337.41;;;18.85;100.00
29063;BME280;71206;48.564;-123.458;2023-08-07T07:56:35;101335.94;;;19.52;100.00
29063;BME280;71206;48.564;-123.458;2023-08-07T07:59:01;101330.25;;;20.16;99.06
29063;BME280;71206;48.564;-123.458;2023-08-07T08:01:27;101336.32;;;19.49;100.00
29063;BME280;71206;48.564;-123.458;2023-08-07T08:03:52;101329.77;;;20.82;94.27
29063;BME280;71206;48.564;-123.458;2023-08-07T08:06:19;101332.03;;;20.31;97.83
29063;BME280;71206;48.564;-123.458;2023-08-07T08:08:44;101333.88;;;20.09;100.00
29063;BME280;71206;48.564;-123.458;2023-08-07T08:11:15;101332.41;;;18.54;100.00
29063;BME280;71206;48.564;-123.458;2023-08-07T08:13:35;101336.80;;;19.51;100.00
29063;BME280;71206;48.564;-123.458;2023-08-07T08:16:02;101336.05;;;19.48;100.00
29063;BME280;71206;48.564;-123.458;2023-08-07T08:18:27;101339.44;;;19.82;100.00
29063;BME280;71206;48.564;-123.458;2023-08-07T08:20:53;101331.44;;;19.85;100.00
29063;BME280;71206;48.564;-123.458;2023-08-07T08:23:18;101330.89;;;19.09;100.00
29063;BME280;71206;48.564;-123.458;2023-08-07T08:25:44;101328.65;;;19.43;100.00
29063;BME280;71206;48.564;-123.458;2023-08-07T08:28:10;101327.09;;;19.49;100.00
29063;BME280;71206;48.564;-123.458;2023-08-07T08:30:36;101326.10;;;19.28;100.00
29063;BME280;71206;48.564;-123.458;2023-08-07T08:33:02;101324.61;;;20.13;100.00
29063;BME280;71206;48.564;-123.458;2023-08-07T08:35:27;101330.60;;;19.22;100.00
29063;BME280;71206;48.564;-123.458;2023-08-07T08:37:53;101330.97;;;19.56;100.00
29063;BME280;71206;48.564;-123.458;2023-08-07T08:40:19;101331.17;;;19.51;100.00
29063;BME280;71206;48.564;-123.458;2023-08-07T08:42:47;101332.66;;;19.50;100.00
29063;BME280;71206;48.564;-123.458;2023-08-07T08:45:13;101328.34;;;19.80;100.00
29063;BME280;71206;48.564;-123.458;2023-08-07T08:47:37;101332.00;;;19.38;100.00
29063;BME280;71206;48.564;-123.458;2023-08-07T08:50:07;101334.21;;;18.57;100.00
29063;BME280;71206;48.564;-123.458;2023-08-07T08:52:29;101340.56;;;18.76;100.00
29063;BME280;71206;48.564;-123.458;2023-08-07T08:54:55;101339.53;;;19.02;100.00
29063;BME280;71206;48.564;-123.458;2023-08-07T08:57:20;101338.30;;;18.65;100.00
29063;BME280;71206;48.564;-123.458;2023-08-07T08:59:46;101335.53;;;18.82;100.00
29063;BME280;71206;48.564;-123.458;2023-08-07T09:02:12;101330.68;;;18.47;100.00
29063;BME280;71206;48.564;-123.458;2023-08-07T09:04:37;101330.22;;;18.50;100.00
29063;BME280;71206;48.564;-123.458;2023-08-07T09:07:03;101331.72;;;17.76;100.00
29063;BME280;71206;48.564;-123.458;2023-08-07T09:09:29;101332.16;;;18.03;100.00
29063;BME280;71206;48.564;-123.458;2023-08-07T09:11:56;101333.07;;;17.91;100.00
29063;BME280;71206;48.564;-123.458;2023-08-07T09:14:24;101333.08;;;18.07;100.00
29063;BME280;71206;48.564;-123.458;2023-08-07T09:16:52;101332.95;;;18.36;100.00
29063;BME280;71206;48.564;-123.458;2023-08-07T09:19:12;101337.87;;;18.24;100.00
29063;BME280;71206;48.564;-123.458;2023-08-07T09:21:38;101336.93;;;18.30;100.00
29063;BME280;71206;48.564;-123.458;2023-08-07T09:24:04;101339.49;;;18.03;100.00
29063;BME280;71206;48.564;-123.458;2023-08-07T09:26:31;101341.94;;;18.09;100.00
29063;BME280;71206;48.564;-123.458;2023-08-07T09:28:55;101337.95;;;18.13;100.00
29063;BME280;71206;48.564;-123.458;2023-08-07T09:31:23;101332.40;;;18.70;100.00
29063;BME280;71206;48.564;-123.458;2023-08-07T09:33:49;101329.68;;;19.10;100.00
29063;BME280;71206;48.564;-123.458;2023-08-07T09:36:13;101328.66;;;19.15;100.00
29063;BME280;71206;48.564;-123.458;2023-08-07T09:38:39;101325.43;;;18.47;100.00
29063;BME280;71206;48.564;-123.458;2023-08-07T09:41:05;101321.80;;;18.37;100.00
29063;BME280;71206;48.564;-123.458;2023-08-07T09:43:34;101324.32;;;18.22;100.00
29063;BME280;71206;48.564;-123.458;2023-08-07T09:46:03;101325.66;;;19.12;100.00
29063;BME280;71206;48.564;-123.458;2023-08-07T09:48:24;101319.08;;;19.12;100.00
29063;BME280;71206;48.564;-123.458;2023-08-07T09:50:48;101312.88;;;18.54;100.00
29063;BME280;71206;48.564;-123.458;2023-08-07T09:53:14;101313.55;;;18.49;100.00
29063;BME280;71206;48.564;-123.458;2023-08-07T09:55:39;101315.83;;;17.81;100.00
29063;BME280;71206;48.564;-123.458;2023-08-07T09:58:07;101311.32;;;18.42;100.00
29063;BME280;71206;48.564;-123.458;2023-08-07T10:00:35;101306.73;;;18.47;100.00
29063;BME280;71206;48.564;-123.458;2023-08-07T10:02:58;101303.97;;;18.81;100.00
29063;BME280;71206;48.564;-123.458;2023-08-07T10:05:23;101303.60;;;18.80;100.00
29063;BME280;71206;48.564;-123.458;2023-08-07T10:07:49;101311.23;;;18.76;100.00
29063;BME280;71206;48.564;-123.458;2023-08-07T10:10:15;101311.63;;;18.31;100.00
29063;BME280;71206;48.564;-123.458;2023-08-07T10:12:42;101316.11;;;18.34;100.00
29063;BME280;71206;48.564;-123.458;2023-08-07T10:15:08;101315.17;;;18.38;100.00
29063;BME280;71206;48.564;-123.458;2023-08-07T10:17:32;101313.86;;;18.45;100.00
29063;BME280;71206;48.564;-123.458;2023-08-07T10:19:58;101313.96;;;18.26;100.00
29063;BME280;71206;48.564;-123.458;2023-08-07T10:22:25;101318.90;;;18.80;100.00
29063;BME280;71206;48.564;-123.458;2023-08-07T10:24:51;101316.53;;;18.37;100.00
29063;BME280;71206;48.564;-123.458;2023-08-07T10:27:18;101320.90;;;19.00;100.00
29063;BME280;71206;48.564;-123.458;2023-08-07T10:29:42;101321.51;;;17.81;100.00
29063;BME280;71206;48.564;-123.458;2023-08-07T10:32:08;101321.67;;;18.30;100.00
29063;BME280;71206;48.564;-123.458;2023-08-07T10:34:34;101329.45;;;18.07;100.00
29063;BME280;71206;48.564;-123.458;2023-08-07T10:36:59;101330.86;;;17.97;100.00
29063;BME280;71206;48.564;-123.458;2023-08-07T10:39:24;101330.08;;;18.33;100.00
29063;BME280;71206;48.564;-123.458;2023-08-07T10:41:54;101324.56;;;18.47;100.00
29063;BME280;71206;48.564;-123.458;2023-08-07T10:44:20;101318.69;;;18.31;100.00
29063;BME280;71206;48.564;-123.458;2023-08-07T10:46:48;101311.97;;;18.57;100.00
29063;BME280;71206;48.564;-123.458;2023-08-07T10:49:11;101313.03;;;19.22;100.00
29063;BME280;71206;48.564;-123.458;2023-08-07T10:51:33;101314.07;;;18.83;100.00
29063;BME280;71206;48.564;-123.458;2023-08-07T10:54:00;101310.38;;;18.59;100.00
29063;BME280;71206;48.564;-123.458;2023-08-07T10:56:30;101308.31;;;18.21;100.00
29063;BME280;71206;48.564;-123.458;2023-08-07T10:58:51;101303.88;;;18.30;100.00
29063;BME280;71206;48.564;-123.458;2023-08-07T11:01:18;101303.47;;;18.26;100.00
29063;BME280;71206;48.564;-123.458;2023-08-07T11:03:44;101304.46;;;17.74;100.00
29063;BME280;71206;48.564;-123.458;2023-08-07T11:06:10;101304.43;;;17.49;100.00
29063;BME280;71206;48.564;-123.458;2023-08-07T11:08:34;101298.61;;;17.54;100.00
29063;BME280;71206;48.564;-123.458;2023-08-07T11:11:05;101294.39;;;17.39;100.00
29063;BME280;71206;48.564;-123.458;2023-08-07T11:13:26;101296.96;;;17.39;100.00
29063;BME280;71206;48.564;-123.458;2023-08-07T11:15:52;101293.08;;;17.61;100.00
29063;BME280;71206;48.564;-123.458;2023-08-07T11:18:18;101294.51;;;19.30;100.00
29063;BME280;71206;48.564;-123.458;2023-08-07T11:20:44;101295.07;;;19.00;100.00
29063;BME280;71206;48.564;-123.458;2023-08-07T11:23:09;101295.96;;;18.15;100.00
29063;BME280;71206;48.564;-123.458;2023-08-07T11:25:38;101298.56;;;17.87;100.00
29063;BME280;71206;48.564;-123.458;2023-08-07T11:28:01;101299.58;;;17.98;100.00
29063;BME280;71206;48.564;-123.458;2023-08-07T11:30:27;101299.06;;;17.65;100.00
29063;BME280;71206;48.564;-123.458;2023-08-07T11:32:53;101295.69;;;17.57;100.00
29063;BME280;71206;48.564;-123.458;2023-08-07T11:35:19;101296.89;;;17.52;100.00
29063;BME280;71206;48.564;-123.458;2023-08-07T11:37:49;101293.26;;;17.14;100.00
29063;BME280;71206;48.564;-123.458;2023-08-07T11:40:11;101291.38;;;17.68;100.00
29063;BME280;71206;48.564;-123.458;2023-08-07T11:42:36;101300.40;;;17.47;100.00
29063;BME280;71206;48.564;-123.458;2023-08-07T11:45:03;101300.74;;;17.28;100.00
29063;BME280;71206;48.564;-123.458;2023-08-07T11:47:28;101299.27;;;17.02;100.00
29063;BME280;71206;48.564;-123.458;2023-08-07T11:49:53;101294.38;;;17.76;100.00
29063;BME280;71206;48.564;-123.458;2023-08-07T11:52:19;101294.51;;;17.70;100.00
29063;BME280;71206;48.564;-123.458;2023-08-07T11:54:48;101290.09;;;18.16;100.00
29063;BME280;71206;48.564;-123.458;2023-08-07T11:57:16;101290.74;;;17.90;100.00
29063;BME280;71206;48.564;-123.458;2023-08-07T11:59:37;101285.91;;;16.97;100.00
29063;BME280;71206;48.564;-123.458;2023-08-07T12:02:09;101285.69;;;17.87;100.00
29063;BME280;71206;48.564;-123.458;2023-08-07T12:04:31;101284.05;;;18.38;100.00
29063;BME280;71206;48.564;-123.458;2023-08-07T12:06:55;101285.30;;;17.80;100.00